Baltimore, Maryland
Traffic Map
Current Weather Conditions
Baltimore, Maryland
Overcast Haze
Overcast
54°
Feels Like: 54°
Wind Chill: 54° Ceiling: 2200
Heat Index: 54° Visibility: 6mi
Dew Point: 51° Wind: 10mph
Humidity: 90% Direction: 330° (NNW)
Pressure: 29.91in Gusts: 0mph
Raw Report DataKBWI 221554Z 33009KT 6SM BR SCT014 BKN022 OVC065 12/11 A2991 RMK AO2 RAE30 SLP129 P0001 T01220106
Traffic Incident Summary
Active as of:
Severity:
Category:
InformationThere was an issue retrieving the traffic information for this location. Please try a different location or try again shortly.
Advertisements
Track Severe Weather on mobile